createdAt,value
2023-02-15T00:00:12.240Z,0.05
2023-02-15T00:02:41.489Z,0.05
2023-02-15T00:05:11.324Z,0.03
2023-02-15T00:07:39.786Z,0.06
2023-02-15T00:10:09.501Z,-0.05
2023-02-15T00:12:37.980Z,-0.08
2023-02-15T00:15:06.697Z,-0.06
2023-02-15T00:17:35.087Z,-0.05
2023-02-15T00:20:03.499Z,-0.12
2023-02-15T00:22:33.411Z,-0.11
2023-02-15T00:25:01.804Z,-0.10
2023-02-15T00:27:30.240Z,-0.17
2023-02-15T00:29:58.640Z,-0.01
2023-02-15T00:32:26.992Z,-0.05
2023-02-15T00:34:55.536Z,-0.12
2023-02-15T00:37:25.845Z,-0.01
2023-02-15T00:39:55.634Z,-0.05
2023-02-15T00:42:24.031Z,-0.01
2023-02-15T00:44:54.090Z,-0.06
2023-02-15T00:47:22.762Z,-0.08
2023-02-15T00:49:51.256Z,-0.03
2023-02-15T00:52:20.229Z,-0.13
2023-02-15T00:54:48.536Z,-0.15
2023-02-15T00:57:18.402Z,-0.12
2023-02-15T00:59:46.791Z,-0.10
2023-02-15T01:02:15.324Z,-0.22
2023-02-15T01:04:43.819Z,-0.33
2023-02-15T01:07:12.231Z,-0.20
2023-02-15T01:09:40.573Z,-0.13
2023-02-15T01:12:09.628Z,-0.24
2023-02-15T01:14:39.377Z,-0.22
2023-02-15T01:17:07.990Z,-0.21
2023-02-15T01:19:37.432Z,-0.21
2023-02-15T01:22:05.778Z,-0.14
2023-02-15T01:24:37.310Z,-0.23
2023-02-15T01:27:05.615Z,-0.35
2023-02-15T01:29:33.985Z,-0.27
2023-02-15T01:32:03.881Z,-0.32
2023-02-15T01:34:32.531Z,-0.35
2023-02-15T01:37:01.400Z,-0.39
2023-02-15T01:39:29.778Z,-0.45
2023-02-15T01:41:58.585Z,-0.46
2023-02-15T01:44:50.553Z,-0.37
2023-02-15T01:47:28.393Z,-0.44
2023-02-15T01:50:04.114Z,-0.49
2023-02-15T01:52:32.626Z,-0.61
2023-02-15T01:55:01.161Z,-0.78
2023-02-15T01:57:32.251Z,-0.91
2023-02-15T02:00:03.463Z,-0.85
2023-02-15T02:02:45.212Z,-0.70
2023-02-15T02:05:13.689Z,-0.73
2023-02-15T02:07:45.912Z,-0.76
2023-02-15T02:10:17.785Z,-0.87
2023-02-15T02:12:49.404Z,-0.85
2023-02-15T02:15:18.263Z,-0.86
2023-02-15T02:18:02.289Z,-1.00
2023-02-15T02:20:45.342Z,-0.89
2023-02-15T02:23:35.108Z,-0.80
2023-02-15T02:26:45.061Z,-0.86
2023-02-15T02:29:49.901Z,-1.12
2023-02-15T02:32:34.879Z,-1.21
2023-02-15T02:35:12.336Z,-1.28
2023-02-15T02:37:52.621Z,-1.19
2023-02-15T02:40:27.857Z,-1.08
2023-02-15T02:43:02.152Z,-0.98
2023-02-15T02:45:39.798Z,-0.94
2023-02-15T02:48:11.652Z,-1.05
2023-02-15T02:50:43.087Z,-1.02
2023-02-15T02:53:12.098Z,-0.91
2023-02-15T02:55:45.407Z,-0.94
2023-02-15T02:58:18.733Z,-1.06
2023-02-15T03:00:52.690Z,-1.27
2023-02-15T03:03:27.968Z,-1.35
2023-02-15T03:06:01.654Z,-1.39
2023-02-15T03:08:35.086Z,-1.33
2023-02-15T03:11:05.882Z,-1.32
2023-02-15T03:13:35.460Z,-1.45
2023-02-15T03:16:25.194Z,-1.55
2023-02-15T03:18:59.054Z,-1.57
2023-02-15T03:21:36.089Z,-1.69
2023-02-15T03:24:15.357Z,-1.68
2023-02-15T03:26:45.265Z,-1.80
2023-02-15T03:29:14.766Z,-1.82
2023-02-15T03:31:47.755Z,-1.79
2023-02-15T03:34:18.857Z,-1.85
2023-02-15T03:36:54.186Z,-1.94
2023-02-15T03:39:26.932Z,-1.98
2023-02-15T03:42:00.349Z,-1.92
2023-02-15T03:44:31.748Z,-1.87
2023-02-15T03:47:06.357Z,-1.69
2023-02-15T03:49:41.160Z,-1.87
2023-02-15T03:52:13.837Z,-1.78
2023-02-15T03:54:46.859Z,-1.80
2023-02-15T03:57:37.905Z,-1.91
2023-02-15T04:00:30.997Z,-1.79
2023-02-15T04:03:12.707Z,-1.68
2023-02-15T04:05:41.325Z,-1.61
2023-02-15T04:08:11.734Z,-1.68
2023-02-15T04:10:55.963Z,-1.70
2023-02-15T04:13:31.484Z,-1.59
2023-02-15T04:16:05.920Z,-1.66
2023-02-15T04:18:55.857Z,-1.73
2023-02-15T04:21:44.139Z,-1.78
2023-02-15T04:24:32.095Z,-1.94
2023-02-15T04:27:01.402Z,-1.79
2023-02-15T04:29:30.239Z,-1.85
2023-02-15T04:31:59.991Z,-1.62
2023-02-15T04:34:28.545Z,-1.62
2023-02-15T04:36:56.902Z,-1.74
2023-02-15T04:39:26.866Z,-1.84
2023-02-15T04:41:55.299Z,-1.92
2023-02-15T04:44:23.651Z,-1.82
2023-02-15T04:46:52.027Z,-1.99
2023-02-15T04:49:20.398Z,-2.14
2023-02-15T04:51:48.772Z,-2.14
2023-02-15T04:54:17.081Z,-2.00
2023-02-15T04:56:46.932Z,-2.00
2023-02-15T04:59:15.796Z,-1.96
2023-02-15T05:01:44.270Z,-1.90
2023-02-15T05:04:12.919Z,-1.91
2023-02-15T05:06:41.390Z,-2.07
2023-02-15T05:09:09.710Z,-2.20
2023-02-15T05:11:38.132Z,-2.25
2023-02-15T05:14:07.807Z,-2.18
2023-02-15T05:16:36.577Z,-2.12
2023-02-15T05:19:04.930Z,-2.29
2023-02-15T05:21:33.695Z,-2.21
2023-02-15T05:24:22.035Z,-2.20
2023-02-15T05:27:07.841Z,-2.07
2023-02-15T05:29:37.575Z,-2.12
2023-02-15T05:32:06.296Z,-2.24
2023-02-15T05:34:34.701Z,-2.24
2023-02-15T05:37:03.126Z,-2.15
2023-02-15T05:39:31.605Z,-2.12
2023-02-15T05:42:00.943Z,-2.10
2023-02-15T05:44:29.396Z,-2.12
2023-02-15T05:46:59.120Z,-2.16
2023-02-15T05:49:27.459Z,-2.18
2023-02-15T05:51:55.848Z,-1.91
2023-02-15T05:54:24.464Z,-1.91
2023-02-15T05:56:52.896Z,-1.94
2023-02-15T05:59:21.270Z,-1.97
2023-02-15T06:01:49.701Z,-2.16
2023-02-15T06:04:20.345Z,-2.20
2023-02-15T06:06:48.915Z,-2.18
2023-02-15T06:09:19.158Z,-2.21
2023-02-15T06:11:48.132Z,-2.35
2023-02-15T06:14:16.757Z,-2.12
2023-02-15T06:16:46.142Z,-2.10
2023-02-15T06:19:14.709Z,-2.04
2023-02-15T06:21:44.779Z,-2.03
2023-02-15T06:24:13.710Z,-1.88
2023-02-15T06:26:45.432Z,-1.77
2023-02-15T06:29:14.122Z,-1.80
2023-02-15T06:31:42.753Z,-1.92
2023-02-15T06:34:11.225Z,-1.90
2023-02-15T06:36:39.679Z,-1.90
2023-02-15T06:39:09.590Z,-1.94
2023-02-15T06:41:38.302Z,-1.92
2023-02-15T06:44:06.794Z,-2.03
2023-02-15T06:46:35.415Z,-1.98
2023-02-15T06:49:03.855Z,-1.91
2023-02-15T06:51:32.250Z,-1.83
2023-02-15T06:54:00.602Z,-1.71
2023-02-15T06:56:30.287Z,-1.75
2023-02-15T06:58:58.736Z,-1.69
2023-02-15T07:01:27.231Z,-1.68
2023-02-15T07:03:55.847Z,-1.60
2023-02-15T07:06:24.201Z,-1.53
2023-02-15T07:08:53.651Z,-1.63
2023-02-15T07:11:39.483Z,-1.59
2023-02-15T07:14:09.195Z,-1.22
2023-02-15T07:16:37.587Z,-0.84
2023-02-15T07:19:06.357Z,-0.75
2023-02-15T07:21:34.814Z,-0.70
2023-02-15T07:24:03.887Z,-0.72
2023-02-15T07:26:34.042Z,-0.64
2023-02-15T07:29:03.389Z,-0.63
2023-02-15T07:31:33.313Z,-0.48
2023-02-15T07:34:01.676Z,-0.50
2023-02-15T07:36:29.985Z,-0.45
2023-02-15T07:38:58.461Z,0.95
2023-02-15T07:41:26.848Z,1.97
2023-02-15T07:43:55.464Z,2.54
2023-02-15T07:46:23.869Z,3.26
2023-02-15T07:48:53.741Z,4.27
2023-02-15T07:51:22.187Z,5.05
2023-02-15T07:53:52.393Z,5.49
2023-02-15T07:56:20.729Z,6.02
2023-02-15T07:58:56.528Z,6.00
2023-02-15T08:01:27.287Z,6.74
2023-02-15T08:03:59.646Z,7.13
2023-02-15T08:06:29.905Z,7.20
2023-02-15T08:08:58.826Z,8.03
2023-02-15T08:11:33.652Z,8.50
2023-02-15T08:14:04.824Z,8.87
2023-02-15T08:16:36.318Z,8.70
2023-02-15T08:19:08.692Z,8.99
2023-02-15T08:21:38.810Z,9.13
2023-02-15T08:24:08.823Z,9.61
2023-02-15T08:26:41.616Z,9.70
2023-02-15T08:29:11.548Z,9.78
2023-02-15T08:31:42.096Z,10.81
2023-02-15T08:34:13.249Z,11.48
2023-02-15T08:36:42.128Z,12.61
2023-02-15T08:39:10.767Z,13.37
2023-02-15T08:41:41.648Z,14.10
2023-02-15T08:44:11.583Z,14.29
2023-02-15T08:46:42.381Z,14.56
2023-02-15T08:49:14.668Z,14.76
2023-02-15T08:51:43.594Z,15.21
2023-02-15T08:54:15.401Z,15.41
2023-02-15T08:56:45.315Z,14.88
2023-02-15T08:59:17.195Z,15.30
2023-02-15T09:01:46.343Z,15.64
2023-02-15T09:04:17.638Z,15.48
2023-02-15T09:06:49.004Z,16.84
2023-02-15T09:09:18.394Z,17.10
2023-02-15T09:11:48.784Z,17.77
2023-02-15T09:14:18.850Z,18.21
2023-02-15T09:16:49.774Z,17.95
2023-02-15T09:19:21.865Z,19.11
2023-02-15T09:21:50.493Z,19.51
2023-02-15T09:24:19.726Z,18.89
2023-02-15T09:26:49.479Z,20.16
2023-02-15T09:29:19.943Z,19.76
2023-02-15T09:31:50.686Z,20.00
2023-02-15T09:34:22.119Z,20.24
2023-02-15T09:36:51.856Z,21.24
2023-02-15T09:39:23.388Z,21.63
2023-02-15T09:42:15.018Z,22.34
2023-02-15T09:45:13.896Z,22.94
2023-02-15T09:48:03.602Z,22.88
2023-02-15T09:50:44.422Z,23.16
2023-02-15T09:53:28.653Z,23.13
2023-02-15T09:56:04.480Z,22.91
2023-02-15T09:58:46.112Z,22.30
2023-02-15T10:01:26.353Z,23.03
2023-02-15T10:04:13.419Z,23.89
2023-02-15T10:06:49.166Z,24.17
2023-02-15T10:09:51.712Z,24.83
2023-02-15T10:12:50.658Z,24.22
2023-02-15T10:15:39.800Z,25.07
2023-02-15T10:18:22.087Z,25.53
2023-02-15T10:20:58.722Z,25.23
2023-02-15T10:23:53.895Z,24.63
2023-02-15T10:26:24.672Z,24.84
2023-02-15T10:28:55.895Z,24.32
2023-02-15T10:31:29.985Z,24.33
2023-02-15T10:34:16.399Z,24.35
2023-02-15T10:37:06.593Z,25.01
2023-02-15T10:39:50.241Z,25.82
2023-02-15T10:42:27.440Z,26.24
2023-02-15T10:45:15.070Z,26.48
2023-02-15T10:47:57.112Z,27.33
2023-02-15T10:50:35.637Z,27.17
2023-02-15T10:53:24.599Z,27.69
2023-02-15T10:56:03.124Z,26.99
2023-02-15T10:58:45.754Z,27.81
2023-02-15T11:01:22.228Z,28.34
2023-02-15T11:04:06.634Z,28.31
2023-02-15T11:06:38.829Z,28.53
2023-02-15T11:09:13.706Z,27.99
2023-02-15T11:11:44.836Z,26.92
2023-02-15T11:14:21.200Z,26.87
2023-02-15T11:16:54.026Z,26.05
2023-02-15T11:19:28.483Z,25.23
2023-02-15T11:21:57.860Z,25.54
2023-02-15T11:24:30.556Z,24.98
2023-02-15T11:27:05.142Z,25.52
2023-02-15T11:29:35.450Z,26.58
2023-02-15T11:32:14.514Z,27.22
2023-02-15T11:34:50.230Z,27.77
2023-02-15T11:37:21.934Z,27.68
2023-02-15T11:39:55.611Z,28.01
2023-02-15T11:42:27.524Z,28.57
2023-02-15T11:45:03.962Z,28.20
2023-02-15T11:47:32.421Z,27.99
2023-02-15T11:50:01.633Z,26.80
2023-02-15T11:52:30.012Z,26.81
2023-02-15T11:54:58.438Z,27.46
2023-02-15T11:57:36.400Z,26.80
2023-02-15T12:00:12.451Z,25.44
2023-02-15T12:02:46.522Z,25.59
2023-02-15T12:05:20.000Z,25.15
2023-02-15T12:07:53.939Z,24.49
2023-02-15T12:10:26.172Z,24.23
2023-02-15T12:13:13.280Z,24.61
2023-02-15T12:15:44.785Z,25.35
2023-02-15T12:18:22.451Z,26.19
2023-02-15T12:20:51.189Z,26.73
2023-02-15T12:23:21.359Z,25.87
2023-02-15T12:25:55.079Z,27.55
2023-02-15T12:28:28.918Z,27.74
2023-02-15T12:30:59.082Z,26.93
2023-02-15T12:33:32.213Z,26.67
2023-02-15T12:36:03.870Z,24.75
2023-02-15T12:38:32.600Z,25.01
2023-02-15T12:41:03.718Z,25.48
2023-02-15T12:43:36.228Z,25.75
2023-02-15T12:46:27.683Z,26.39
2023-02-15T12:49:21.172Z,26.17
2023-02-15T12:51:52.130Z,26.03
2023-02-15T12:54:40.994Z,26.21
2023-02-15T12:57:28.983Z,25.56
2023-02-15T13:00:01.396Z,26.03
2023-02-15T13:02:37.283Z,25.98
2023-02-15T13:05:19.435Z,25.34
2023-02-15T13:07:51.772Z,26.40
2023-02-15T13:10:25.497Z,26.87
2023-02-15T13:12:55.529Z,27.06
2023-02-15T13:15:36.625Z,26.38
2023-02-15T13:18:06.940Z,26.90
2023-02-15T13:20:41.469Z,25.52
2023-02-15T13:23:22.680Z,24.86
2023-02-15T13:25:51.602Z,23.31
2023-02-15T13:28:25.988Z,23.51
2023-02-15T13:30:56.268Z,23.11
2023-02-15T13:33:31.721Z,23.44
2023-02-15T13:36:08.604Z,23.62
2023-02-15T13:38:48.962Z,23.52
2023-02-15T13:41:22.108Z,22.72
2023-02-15T13:44:01.233Z,22.55
2023-02-15T13:46:51.159Z,22.04
2023-02-15T13:49:32.700Z,22.48
2023-02-15T13:52:16.446Z,22.23
2023-02-15T13:54:53.337Z,21.92
2023-02-15T13:57:41.023Z,21.79
2023-02-15T14:00:20.087Z,22.15
2023-02-15T14:03:10.588Z,22.15
2023-02-15T14:05:57.666Z,22.05
2023-02-15T14:08:42.542Z,21.98
2023-02-15T14:11:19.250Z,21.64
2023-02-15T14:14:20.292Z,20.96
2023-02-15T14:17:06.737Z,20.25
2023-02-15T14:19:46.581Z,19.69
2023-02-15T14:22:25.052Z,19.16
2023-02-15T14:25:05.325Z,18.50
2023-02-15T14:27:48.315Z,18.47
2023-02-15T14:30:22.230Z,17.60
2023-02-15T14:32:54.952Z,17.57
2023-02-15T14:35:28.801Z,17.23
2023-02-15T14:38:03.527Z,16.81
2023-02-15T14:40:57.290Z,16.57
2023-02-15T14:43:33.865Z,16.47
2023-02-15T14:46:09.568Z,16.27
2023-02-15T14:48:44.459Z,15.95
2023-02-15T14:51:57.754Z,15.70
2023-02-15T14:54:58.798Z,15.16
2023-02-15T14:57:33.384Z,15.39
2023-02-15T15:00:20.035Z,15.32
2023-02-15T15:02:51.717Z,15.12
2023-02-15T15:05:23.166Z,15.00
2023-02-15T15:07:55.429Z,14.86
2023-02-15T15:10:41.465Z,14.83
2023-02-15T15:13:42.341Z,14.71
2023-02-15T15:16:30.285Z,14.52
2023-02-15T15:18:59.394Z,14.40
2023-02-15T15:21:56.218Z,14.33
2023-02-15T15:24:53.114Z,14.23
2023-02-15T15:28:10.249Z,14.10
2023-02-15T15:30:52.402Z,13.96
2023-02-15T15:33:52.831Z,13.80
2023-02-15T15:36:55.392Z,13.72
2023-02-15T15:40:02.347Z,13.66
2023-02-15T15:42:34.550Z,13.61
2023-02-15T15:46:00.097Z,13.43
2023-02-15T15:48:33.408Z,13.33
2023-02-15T15:51:05.534Z,13.21
2023-02-15T15:53:40.934Z,13.08
2023-02-15T15:56:13.893Z,12.98
2023-02-15T15:58:48.617Z,12.84
2023-02-15T16:01:17.260Z,12.69
2023-02-15T16:03:53.366Z,12.63
2023-02-15T16:06:33.205Z,12.45
2023-02-15T16:09:18.383Z,12.26
2023-02-15T16:11:51.076Z,12.14
2023-02-15T16:14:27.795Z,11.98
2023-02-15T16:16:59.381Z,11.85
2023-02-15T16:19:31.383Z,11.60
2023-02-15T16:22:02.098Z,11.58
2023-02-15T16:24:44.989Z,11.59
2023-02-15T16:27:35.347Z,11.50
2023-02-15T16:30:24.372Z,11.34
2023-02-15T16:32:55.484Z,11.17
2023-02-15T16:35:25.425Z,11.01
2023-02-15T16:37:53.819Z,10.97
2023-02-15T16:40:34.896Z,10.90
2023-02-15T16:43:08.547Z,10.72
2023-02-15T16:45:39.671Z,10.68
2023-02-15T16:48:13.904Z,10.58
2023-02-15T16:50:48.297Z,10.59
2023-02-15T16:53:21.167Z,10.42
2023-02-15T16:55:52.960Z,10.26
2023-02-15T16:58:29.345Z,10.19
2023-02-15T17:01:00.794Z,10.16
2023-02-15T17:03:29.567Z,10.11
2023-02-15T17:05:59.830Z,10.27
2023-02-15T17:08:33.322Z,10.16
2023-02-15T17:11:12.631Z,10.04
2023-02-15T17:14:15.150Z,9.87
2023-02-15T17:16:49.801Z,9.96
2023-02-15T17:19:22.850Z,9.72
2023-02-15T17:21:54.203Z,9.66
2023-02-15T17:24:33.484Z,9.67
2023-02-15T17:27:05.905Z,9.60
2023-02-15T17:29:39.286Z,9.50
2023-02-15T17:32:17.790Z,9.39
2023-02-15T17:34:50.199Z,9.24
2023-02-15T17:37:28.075Z,9.16
2023-02-15T17:39:57.373Z,9.12
2023-02-15T17:42:25.954Z,9.19
2023-02-15T17:44:55.747Z,9.24
2023-02-15T17:47:27.575Z,9.25
2023-02-15T17:49:55.981Z,9.19
2023-02-15T17:52:26.441Z,9.05
2023-02-15T17:55:12.855Z,9.03
2023-02-15T17:57:41.282Z,8.94
2023-02-15T18:00:33.683Z,8.88
2023-02-15T18:03:19.667Z,9.15
2023-02-15T18:06:05.664Z,9.08
2023-02-15T18:08:51.679Z,9.15
2023-02-15T18:11:35.816Z,9.18
2023-02-15T18:14:04.725Z,9.16
2023-02-15T18:16:37.413Z,9.19
2023-02-15T18:19:06.776Z,9.27
2023-02-15T18:21:35.103Z,9.35
2023-02-15T18:24:03.567Z,9.35
2023-02-15T18:26:32.002Z,9.51
2023-02-15T18:29:00.479Z,9.42
2023-02-15T18:31:29.188Z,9.20
2023-02-15T18:34:03.052Z,9.03
2023-02-15T18:36:33.592Z,8.96
2023-02-15T18:39:07.768Z,8.94
2023-02-15T18:41:37.302Z,8.89
2023-02-15T18:44:11.437Z,8.89
2023-02-15T18:46:39.822Z,8.89
2023-02-15T18:49:09.627Z,9.17
2023-02-15T18:51:40.109Z,9.04
2023-02-15T18:54:18.116Z,8.96
2023-02-15T18:56:54.632Z,8.80
2023-02-15T18:59:24.430Z,8.75
2023-02-15T19:01:53.950Z,8.58
2023-02-15T19:04:25.796Z,8.47
2023-02-15T19:06:55.558Z,8.25
2023-02-15T19:09:26.101Z,8.34
2023-02-15T19:11:56.133Z,8.36
2023-02-15T19:14:27.557Z,8.30
2023-02-15T19:16:56.377Z,8.07
2023-02-15T19:19:27.240Z,7.96
2023-02-15T19:21:56.183Z,7.90
2023-02-15T19:24:31.672Z,7.98
2023-02-15T19:27:00.174Z,7.80
2023-02-15T19:29:31.582Z,7.67
2023-02-15T19:32:00.025Z,7.56
2023-02-15T19:34:29.845Z,7.32
2023-02-15T19:36:58.511Z,7.37
2023-02-15T19:39:29.979Z,7.34
2023-02-15T19:41:58.490Z,7.23
2023-02-15T19:44:26.875Z,7.28
2023-02-15T19:46:55.586Z,7.36
2023-02-15T19:49:23.955Z,7.40
2023-02-15T19:51:54.177Z,7.40
2023-02-15T19:54:30.696Z,7.48
2023-02-15T19:57:00.151Z,7.36
2023-02-15T19:59:30.027Z,7.33
2023-02-15T20:01:58.476Z,7.27
2023-02-15T20:04:28.008Z,7.35
2023-02-15T20:07:00.130Z,7.26
2023-02-15T20:09:32.195Z,7.21
2023-02-15T20:12:00.795Z,7.23
2023-02-15T20:14:29.104Z,7.27
2023-02-15T20:16:57.458Z,7.17
2023-02-15T20:19:25.800Z,7.19
2023-02-15T20:22:00.398Z,7.13
2023-02-15T20:24:31.711Z,7.12
2023-02-15T20:27:00.489Z,7.11
2023-02-15T20:29:28.827Z,7.04
2023-02-15T20:32:01.149Z,7.06
2023-02-15T20:34:29.572Z,7.07
2023-02-15T20:36:57.892Z,7.11
2023-02-15T20:39:26.303Z,7.06
2023-02-15T20:41:56.098Z,6.98
2023-02-15T20:44:26.558Z,7.10
2023-02-15T20:46:56.707Z,6.96
2023-02-15T20:49:26.754Z,6.98
2023-02-15T20:52:36.147Z,6.79
2023-02-15T20:55:57.287Z,6.65
2023-02-15T20:59:25.810Z,6.47
2023-02-15T21:01:58.773Z,6.58
2023-02-15T21:04:32.543Z,6.50
2023-02-15T21:07:02.191Z,6.49
2023-02-15T21:09:32.390Z,6.54
2023-02-15T21:12:02.514Z,6.40
2023-02-15T21:14:32.295Z,6.59
2023-02-15T21:17:00.849Z,6.54
2023-02-15T21:19:29.684Z,6.56
2023-02-15T21:21:59.595Z,6.52
2023-02-15T21:24:30.089Z,6.54
2023-02-15T21:27:03.139Z,6.36
2023-02-15T21:29:32.963Z,6.42
2023-02-15T21:32:02.590Z,6.48
2023-02-15T21:34:31.276Z,6.41
2023-02-15T21:37:00.214Z,6.37
2023-02-15T21:39:33.544Z,6.37
2023-02-15T21:42:30.783Z,6.45
2023-02-15T21:45:32.691Z,6.36
2023-02-15T21:48:01.412Z,6.32
2023-02-15T21:50:47.443Z,6.26
2023-02-15T21:53:21.601Z,6.13
2023-02-15T21:55:50.073Z,6.11
2023-02-15T21:58:21.346Z,6.10
2023-02-15T22:00:54.601Z,5.86
2023-02-15T22:03:23.764Z,5.96
2023-02-15T22:05:52.322Z,5.93
2023-02-15T22:08:20.857Z,5.86
2023-02-15T22:10:49.675Z,5.91
2023-02-15T22:13:24.007Z,5.62
2023-02-15T22:15:53.759Z,5.65
2023-02-15T22:18:26.195Z,5.64
2023-02-15T22:20:55.991Z,5.53
2023-02-15T22:23:24.912Z,5.87
2023-02-15T22:25:56.139Z,6.02
2023-02-15T22:28:29.886Z,5.98
2023-02-15T22:30:59.736Z,5.97
2023-02-15T22:33:30.248Z,5.79
2023-02-15T22:35:59.394Z,5.83
2023-02-15T22:38:28.426Z,5.84
2023-02-15T22:41:03.120Z,5.87
2023-02-15T22:43:38.517Z,5.88
2023-02-15T22:46:14.223Z,5.93
2023-02-15T22:48:43.714Z,5.99
2023-02-15T22:51:13.936Z,5.89
2023-02-15T22:53:42.473Z,5.80
2023-02-15T22:56:18.592Z,5.88
2023-02-15T22:58:48.373Z,5.76
2023-02-15T23:01:25.569Z,5.81
2023-02-15T23:03:53.901Z,5.61
2023-02-15T23:06:22.263Z,5.51
2023-02-15T23:08:50.655Z,5.55
2023-02-15T23:11:19.921Z,5.38
2023-02-15T23:13:49.639Z,5.40
2023-02-15T23:16:20.515Z,5.57
2023-02-15T23:18:49.266Z,5.54
2023-02-15T23:21:22.210Z,5.34
2023-02-15T23:23:52.336Z,5.39
2023-02-15T23:26:22.755Z,5.42
2023-02-15T23:28:52.335Z,5.20
2023-02-15T23:31:24.826Z,5.36
2023-02-15T23:33:54.159Z,5.34
2023-02-15T23:36:32.203Z,5.30
2023-02-15T23:39:23.432Z,5.34
2023-02-15T23:41:51.248Z,5.28
2023-02-15T23:44:20.256Z,5.24
2023-02-15T23:46:50.845Z,5.18
2023-02-15T23:49:20.506Z,5.31
2023-02-15T23:51:51.060Z,5.34
2023-02-15T23:54:21.798Z,5.42
2023-02-15T23:56:52.370Z,5.37
2023-02-15T23:59:23.284Z,5.27
